Winslow, NE (68072)

10:39 PM CST on December 08, 2016 (GMT -0600)
West Bluff of Elkhorn River Valley | | Change Station

Elev 1263 ft 41.59 °N, 96.49 °W | Updated 1 minute ago

Clear
Clear
10.3 °F
Feels Like 10 °F
N
2.0
Wind Variable Wind from North

Today
High -- | Low -- °F
--% Chance of Precip.
Yesterday
High -- | Low -- °F
Precip. -- in
Pressure 30.63 in
Visibility 10.0 miles
Clouds Clear
Windchill 10 °F
Dew Point 4 °F
Humidity 78%
Rainfall 0.00 in
Snow Depth Not available.
7:40 AM 4:55 PM
Waxing Gibbous, 70% visible
METAR KFET 090415Z AUTO 00000KT 10SM CLR M13/M15 A3063 RMK AO2 T11261152
Pressure 30.63 in
Visibility 10.0 miles
Clouds Clear
Windchill 10 °F
Dew Point 4 °F
Humidity 78%
Rainfall 0.00 in
Snow Depth Not available.
7:40 AM 4:55 PM
Waxing Gibbous, 70% visible
METAR KFET 090415Z AUTO 00000KT 10SM CLR M13/M15 A3063 RMK AO2 T11261152

10-Day Weather Forecast

Almanac

Astronomy

Dec. 08, 2016 Rise Set
Actual Time
Civil Twilight
Nautical Twilight
Astronomical Twilight
Moon
Length of Visible Light
Length of Day
Tomorrow will be .
, % of the Moon is Illuminated

Today's Extremes

State Highs State Lows

Community

WunderPhotos

Upload Photos

1,956,370 photos uploaded!

WunderBlog® & News

Nearby

Air Quality

  Air Quality AQ Index Pollutant
Not available.

Snow Depth

Station Depth Elevation

Earthquake Activity

City Distance Mag. Time & Date
Minimum magnitude displayed is 2.5.

Coastal Water Temperatures

Place Temperature

Stations

Nearby Weather Stations

Station Location Temp. Windchill Dew Point Humidity Wind Precip. Elev Updated Type
                   

Watches & Warnings

There are currently no watches in effect.